Time;durP1;ratioP1;P1;durP2;ratioP2;P2;SDS_P1;SDS_P2;PMS_P1;PMS_P2;Temp;Humidity;BMP_temperature;BMP_pressure;BME280_temperature;BME280_humidity;BME280_pressure;Samples;Min_cycle;Max_cycle;Signal;HPM_P1;HPM_P2
2021/10/29 00:02:20;;;;;;;0.80;0.67;;;;;;;;;;5047495;28;20029;-86
2021/10/29 00:04:46;;;;;;;0.23;0.23;;;;;;;;;;5046701;28;20076;-84
2021/10/29 00:07:12;;;;;;;0.50;0.50;;;;;;;;;;5048475;28;20028;-86
2021/10/29 00:09:40;;;;;;;0.10;0.10;;;;;;;;;;5046901;28;20033;-88
2021/10/29 00:12:06;;;;;;;0.28;0.28;;;;;;;;;;5046497;28;20025;-89
2021/10/29 00:14:33;;;;;;;10.68;1.88;;;;;;;;;;5047265;28;20104;-85
2021/10/29 00:17:00;;;;;;;0.47;0.47;;;;;;;;;;5048444;28;20131;-86
2021/10/29 00:19:26;;;;;;;1.45;0.30;;;;;;;;;;5046445;28;20032;-86
2021/10/29 00:21:52;;;;;;;0.20;0.20;;;;;;;;;;5048411;28;20548;-86
2021/10/29 00:24:19;;;;;;;0.10;0.10;;;;;;;;;;5044239;28;20171;-88
2021/10/29 00:26:45;;;;;;;2.40;1.23;;;;;;;;;;5045774;28;20021;-88
2021/10/29 00:29:11;;;;;;;0.10;0.10;;;;;;;;;;5047261;28;20055;-86
2021/10/29 00:31:37;;;;;;;0.10;0.10;;;;;;;;;;5045784;28;20142;-85
2021/10/29 00:34:03;;;;;;;0.20;0.20;;;;;;;;;;5047944;28;20036;-85
2021/10/29 00:36:29;;;;;;;0.10;0.10;;;;;;;;;;5047010;28;20818;-85
2021/10/29 00:38:55;;;;;;;0.70;0.63;;;;;;;;;;5046242;28;20620;-85
2021/10/29 00:41:21;;;;;;;0.47;0.47;;;;;;;;;;5046532;28;20486;-85
2021/10/29 00:43:47;;;;;;;0.13;0.13;;;;;;;;;;5047539;28;20017;-91
2021/10/29 00:46:13;;;;;;;0.10;0.10;;;;;;;;;;5049533;28;20095;-88
2021/10/29 00:48:39;;;;;;;1.77;1.55;;;;;;;;;;5045935;28;20757;-89
2021/10/29 00:51:05;;;;;;;0.10;0.10;;;;;;;;;;5047249;28;20052;-89
2021/10/29 00:53:32;;;;;;;0.40;0.40;;;;;;;;;;5046852;28;20083;-88
2021/10/29 00:55:58;;;;;;;0.30;0.30;;;;;;;;;;5046374;28;20021;-89
2021/10/29 00:58:24;;;;;;;0.15;0.15;;;;;;;;;;5047695;28;20032;-87
2021/10/29 01:00:51;;;;;;;0.10;0.10;;;;;;;;;;5040073;28;20029;-88
2021/10/29 01:03:17;;;;;;;0.10;0.10;;;;;;;;;;5045986;28;20111;-88
2021/10/29 01:05:43;;;;;;;0.10;0.10;;;;;;;;;;5042905;28;20558;-88
2021/10/29 01:08:10;;;;;;;0.10;0.10;;;;;;;;;;5046165;28;20060;-87
2021/10/29 01:10:37;;;;;;;0.10;0.10;;;;;;;;;;5045280;28;20052;-89
2021/10/29 01:13:03;;;;;;;0.22;0.22;;;;;;;;;;5047280;28;20106;-88
2021/10/29 01:15:30;;;;;;;0.60;0.60;;;;;;;;;;5043924;28;20514;-88
2021/10/29 01:17:56;;;;;;;0.30;0.30;;;;;;;;;;5045115;28;20551;-89
2021/10/29 01:20:22;;;;;;;1.15;0.95;;;;;;;;;;5044731;28;20550;-89
2021/10/29 01:22:49;;;;;;;0.10;0.10;;;;;;;;;;5044044;28;20400;-89
2021/10/29 01:25:15;;;;;;;0.20;0.20;;;;;;;;;;5048523;28;20032;-87
2021/10/29 01:27:41;;;;;;;0.10;0.10;;;;;;;;;;5047629;28;20087;-86
2021/10/29 01:30:08;;;;;;;5.15;0.35;;;;;;;;;;5044303;28;20127;-85
2021/10/29 01:32:34;;;;;;;0.20;0.20;;;;;;;;;;5045820;28;20033;-86
2021/10/29 01:35:00;;;;;;;0.90;0.30;;;;;;;;;;5043451;28;20032;-84
2021/10/29 01:37:27;;;;;;;0.10;0.10;;;;;;;;;;5046629;28;20033;-85
2021/10/29 01:39:54;;;;;;;0.10;0.10;;;;;;;;;;5047249;28;20036;-87
2021/10/29 01:42:20;;;;;;;;;;;;;;;;;;5046477;28;20028;-87
2021/10/29 01:44:46;;;;;;;0.32;0.20;;;;;;;;;;5045645;28;19909;-86
2021/10/29 01:47:12;;;;;;;0.25;0.25;;;;;;;;;;5044908;28;20033;-86
2021/10/29 01:49:39;;;;;;;0.25;0.25;;;;;;;;;;5044617;28;20638;-87
2021/10/29 01:52:05;;;;;;;;;;;;;;;;;;5048121;28;20028;-87
2021/10/29 01:54:31;;;;;;;0.32;0.32;;;;;;;;;;5045372;28;19908;-88
2021/10/29 01:56:58;;;;;;;0.10;0.10;;;;;;;;;;5061458;28;20389;-89
2021/10/29 01:59:25;;;;;;;0.10;0.10;;;;;;;;;;5046400;28;20040;-87
2021/10/29 02:01:51;;;;;;;0.20;0.20;;;;;;;;;;5044868;28;20033;-87
2021/10/29 02:04:17;;;;;;;0.20;0.20;;;;;;;;;;5048122;28;20033;-88
2021/10/29 02:06:43;;;;;;;1.00;0.50;;;;;;;;;;5047898;28;20279;-87
2021/10/29 02:09:09;;;;;;;0.33;0.33;;;;;;;;;;5046347;28;20119;-88
2021/10/29 02:11:35;;;;;;;0.15;0.15;;;;;;;;;;5044377;28;20357;-88
2021/10/29 02:14:02;;;;;;;0.45;0.45;;;;;;;;;;5045685;28;20120;-87
2021/10/29 02:16:28;;;;;;;0.10;0.10;;;;;;;;;;5045826;28;20115;-87
2021/10/29 02:18:54;;;;;;;0.10;0.10;;;;;;;;;;5046964;28;20032;-87
2021/10/29 02:21:20;;;;;;;0.10;0.10;;;;;;;;;;5045579;28;20024;-87
2021/10/29 02:23:46;;;;;;;0.00;0.00;;;;;;;;;;5045178;28;20079;-88
2021/10/29 02:26:13;;;;;;;0.30;0.30;;;;;;;;;;5045855;28;20802;-87
2021/10/29 02:28:39;;;;;;;0.00;0.00;;;;;;;;;;5044732;28;20043;-88
2021/10/29 02:31:05;;;;;;;0.00;0.00;;;;;;;;;;5048928;28;20768;-89
2021/10/29 02:33:31;;;;;;;0.33;0.33;;;;;;;;;;5049850;28;20392;-90
2021/10/29 02:35:57;;;;;;;0.30;0.30;;;;;;;;;;5049895;28;20029;-89
2021/10/29 02:38:23;;;;;;;0.30;0.30;;;;;;;;;;5049363;28;20031;-87
2021/10/29 02:40:49;;;;;;;0.35;0.35;;;;;;;;;;5048267;28;20104;-87
2021/10/29 02:43:15;;;;;;;0.10;0.10;;;;;;;;;;5049661;28;20059;-86
2021/10/29 02:45:41;;;;;;;0.15;0.15;;;;;;;;;;5048653;28;20057;-87
2021/10/29 02:48:07;;;;;;;2.90;0.60;;;;;;;;;;5049026;28;20155;-87
2021/10/29 02:50:34;;;;;;;1.40;0.73;;;;;;;;;;5048993;28;20302;-86
2021/10/29 02:53:03;;;;;;;0.10;0.10;;;;;;;;;;5048310;28;20104;-87
2021/10/29 02:55:29;;;;;;;0.20;0.20;;;;;;;;;;5049074;28;20025;-86
2021/10/29 02:57:55;;;;;;;0.10;0.10;;;;;;;;;;5049854;28;20075;-87
2021/10/29 03:00:21;;;;;;;0.40;0.33;;;;;;;;;;5049384;28;20399;-85
2021/10/29 03:02:48;;;;;;;0.10;0.10;;;;;;;;;;5038586;28;20026;-86
2021/10/29 03:05:14;;;;;;;0.45;0.40;;;;;;;;;;5042695;28;20335;-85
2021/10/29 03:07:40;;;;;;;0.22;0.13;;;;;;;;;;5048757;28;20025;-85
2021/10/29 03:10:07;;;;;;;0.17;0.17;;;;;;;;;;5049643;28;20045;-84
2021/10/29 03:12:34;;;;;;;;;;;;;;;;;;5048947;28;20036;-84
2021/10/29 03:15:00;;;;;;;21.60;0.65;;;;;;;;;;5047904;28;19966;-83
2021/10/29 03:17:26;;;;;;;0.10;0.10;;;;;;;;;;5048673;28;20130;-85
2021/10/29 03:19:52;;;;;;;0.17;0.17;;;;;;;;;;5047686;28;20470;-84
2021/10/29 03:22:18;;;;;;;0.28;0.22;;;;;;;;;;5048397;28;20079;-86
2021/10/29 03:24:44;;;;;;;2.90;1.00;;;;;;;;;;5048687;28;20103;-86
2021/10/29 03:27:10;;;;;;;0.10;0.10;;;;;;;;;;5047992;28;20037;-86
2021/10/29 03:29:38;;;;;;;0.10;0.10;;;;;;;;;;5047967;28;20442;-83
2021/10/29 03:32:05;;;;;;;1.90;0.95;;;;;;;;;;5048199;28;20021;-83
2021/10/29 03:34:31;;;;;;;0.00;0.00;;;;;;;;;;5048092;28;20104;-84
2021/10/29 03:36:57;;;;;;;0.30;0.30;;;;;;;;;;5048154;28;20693;-85
2021/10/29 03:39:37;;;;;;;0.00;0.00;;;;;;;;;;5048345;28;20045;-90
2021/10/29 03:42:13;;;;;;;0.15;0.15;;;;;;;;;;5042782;28;20549;-90
2021/10/29 03:44:53;;;;;;;0.10;0.10;;;;;;;;;;5046802;28;20496;-89
2021/10/29 03:47:20;;;;;;;0.47;0.40;;;;;;;;;;5048467;28;20037;-87
2021/10/29 03:49:51;;;;;;;0.20;0.20;;;;;;;;;;5046770;28;20029;-89
2021/10/29 03:54:47;;;;;;;0.10;0.10;;;;;;;;;;5047700;28;20512;-88
2021/10/29 03:57:27;;;;;;;0.10;0.10;;;;;;;;;;5047189;28;20028;-87
2021/10/29 03:59:53;;;;;;;0.00;0.00;;;;;;;;;;5048271;28;20044;-85
2021/10/29 04:02:23;;;;;;;0.28;0.22;;;;;;;;;;5047272;28;20431;-86
2021/10/29 04:04:49;;;;;;;0.47;0.13;;;;;;;;;;5036295;28;20041;-86
2021/10/29 04:07:16;;;;;;;0.70;0.35;;;;;;;;;;5049562;28;20063;-86
2021/10/29 04:09:43;;;;;;;0.32;0.32;;;;;;;;;;5048040;28;20041;-87
2021/10/29 04:12:10;;;;;;;0.10;0.10;;;;;;;;;;5048219;28;20024;-87
2021/10/29 04:14:36;;;;;;;0.20;0.20;;;;;;;;;;5047938;28;20506;-86
2021/10/29 04:17:02;;;;;;;0.33;0.33;;;;;;;;;;5048314;28;20094;-86
2021/10/29 04:19:28;;;;;;;0.10;0.10;;;;;;;;;;5048395;28;20271;-87
2021/10/29 04:21:54;;;;;;;0.08;0.08;;;;;;;;;;5049227;28;20033;-87
2021/10/29 04:24:20;;;;;;;0.10;0.10;;;;;;;;;;5047910;28;20021;-86
2021/10/29 04:26:48;;;;;;;1.03;0.63;;;;;;;;;;5047974;28;20067;-86
2021/10/29 04:29:15;;;;;;;0.65;0.50;;;;;;;;;;5046630;28;20048;-86
2021/10/29 04:31:50;;;;;;;;;;;;;;;;;;5044935;28;20028;-85
2021/10/29 04:34:23;;;;;;;0.10;0.10;;;;;;;;;;5044941;28;20007;-88
2021/10/29 04:36:50;;;;;;;0.20;0.20;;;;;;;;;;5045609;28;20080;-87
2021/10/29 04:39:16;;;;;;;0.22;0.22;;;;;;;;;;5046949;28;20044;-89
2021/10/29 04:41:44;;;;;;;0.13;0.13;;;;;;;;;;5042708;28;20035;-86
2021/10/29 04:44:10;;;;;;;0.10;0.10;;;;;;;;;;5047424;28;20021;-86
2021/10/29 04:46:37;;;;;;;0.20;0.20;;;;;;;;;;5048213;28;20103;-87
2021/10/29 04:49:04;;;;;;;0.10;0.10;;;;;;;;;;5049302;28;20025;-89
2021/10/29 04:51:32;;;;;;;0.38;0.38;;;;;;;;;;5047446;28;20033;-87
2021/10/29 04:53:58;;;;;;;0.30;0.30;;;;;;;;;;5046751;28;20032;-88
2021/10/29 04:56:24;;;;;;;0.20;0.20;;;;;;;;;;5046613;28;20037;-87
2021/10/29 04:58:50;;;;;;;0.10;0.10;;;;;;;;;;5046325;28;20289;-90
2021/10/29 05:01:16;;;;;;;0.10;0.10;;;;;;;;;;5047253;28;20037;-84
2021/10/29 05:03:43;;;;;;;0.00;0.00;;;;;;;;;;5041893;28;20454;-86
2021/10/29 05:06:09;;;;;;;0.10;0.10;;;;;;;;;;5037954;28;20060;-87
2021/10/29 05:08:38;;;;;;;0.20;0.20;;;;;;;;;;5038927;28;20523;-87
2021/10/29 05:11:08;;;;;;;0.10;0.10;;;;;;;;;;5039810;28;20040;-88
2021/10/29 05:13:34;;;;;;;0.10;0.10;;;;;;;;;;5040540;28;20029;-88
2021/10/29 05:16:00;;;;;;;0.10;0.10;;;;;;;;;;5038596;28;20113;-88
2021/10/29 05:18:26;;;;;;;0.40;0.40;;;;;;;;;;5040516;28;20329;-87
2021/10/29 05:20:53;;;;;;;4.07;1.20;;;;;;;;;;5040470;28;20455;-87
2021/10/29 05:23:19;;;;;;;1.58;0.95;;;;;;;;;;5055838;28;20054;-89
2021/10/29 05:25:45;;;;;;;0.00;0.00;;;;;;;;;;5040967;28;20397;-87
2021/10/29 05:28:11;;;;;;;0.00;0.00;;;;;;;;;;5042560;28;20052;-86
2021/10/29 05:30:37;;;;;;;0.10;0.10;;;;;;;;;;5040853;28;20128;-88
2021/10/29 05:33:03;;;;;;;0.00;0.00;;;;;;;;;;5041049;28;20037;-87
2021/10/29 05:35:30;;;;;;;0.10;0.10;;;;;;;;;;5041590;28;20062;-87
2021/10/29 05:37:56;;;;;;;0.10;0.10;;;;;;;;;;5040757;28;20419;-88
2021/10/29 05:40:23;;;;;;;0.45;0.40;;;;;;;;;;5058218;28;20017;-90
2021/10/29 05:42:49;;;;;;;0.25;0.25;;;;;;;;;;5040251;28;20465;-89
2021/10/29 05:45:15;;;;;;;0.20;0.20;;;;;;;;;;5040967;28;20051;-87
2021/10/29 05:47:41;;;;;;;0.10;0.10;;;;;;;;;;5043951;28;20065;-89
2021/10/29 05:50:12;;;;;;;0.40;0.40;;;;;;;;;;5043413;28;20824;-88
2021/10/29 05:52:44;;;;;;;0.22;0.22;;;;;;;;;;5044278;28;20071;-89
2021/10/29 05:57:43;;;;;;;0.00;0.00;;;;;;;;;;5042963;28;20036;-88
2021/10/29 06:00:10;;;;;;;0.25;0.20;;;;;;;;;;5036808;28;20404;-87
2021/10/29 06:02:37;;;;;;;2.25;0.57;;;;;;;;;;5048807;28;20029;-85
2021/10/29 06:05:03;;;;;;;0.40;0.40;;;;;;;;;;5042301;28;20033;-85
2021/10/29 06:07:29;;;;;;;0.20;0.20;;;;;;;;;;5045701;28;20021;-87
2021/10/29 06:09:55;;;;;;;0.10;0.10;;;;;;;;;;5047388;28;20209;-87
2021/10/29 06:12:21;;;;;;;0.10;0.10;;;;;;;;;;5045414;28;20033;-84
2021/10/29 06:14:48;;;;;;;0.10;0.10;;;;;;;;;;5046593;28;20518;-83
2021/10/29 06:17:17;;;;;;;0.10;0.10;;;;;;;;;;5046602;28;20108;-84
2021/10/29 06:19:44;;;;;;;0.17;0.17;;;;;;;;;;5045859;28;20567;-86
2021/10/29 06:22:28;;;;;;;0.30;0.30;;;;;;;;;;5047845;28;20115;-85
2021/10/29 06:24:55;;;;;;;0.10;0.10;;;;;;;;;;5046819;28;20043;-84
2021/10/29 06:29:51;;;;;;;0.10;0.10;;;;;;;;;;5045375;28;20037;-84
2021/10/29 06:32:19;;;;;;;0.30;0.30;;;;;;;;;;5045878;28;20063;-84
2021/10/29 06:34:45;;;;;;;0.10;0.10;;;;;;;;;;5044395;28;20542;-84
2021/10/29 06:37:15;;;;;;;7.15;0.52;;;;;;;;;;5047620;28;20033;-84
2021/10/29 06:39:42;;;;;;;0.10;0.10;;;;;;;;;;5043389;28;20653;-84
2021/10/29 06:42:13;;;;;;;0.13;0.13;;;;;;;;;;5058065;28;20021;-84
2021/10/29 07:01:00;;;;;;;0.00;0.00;;;;;;;;;;5046289;28;20067;-86
2021/10/29 07:41:39;;;;;;;0.10;0.10;;;;;;;;;;5044872;28;20404;-87
2021/10/29 07:44:14;;;;;;;0.20;0.20;;;;;;;;;;5032458;28;20037;-89
2021/10/29 07:46:41;;;;;;;0.10;0.10;;;;;;;;;;5049243;28;20055;-87
2021/10/29 07:49:07;;;;;;;;;;;;;;;;;;5044353;28;20055;-87
2021/10/29 07:51:35;;;;;;;0.00;0.00;;;;;;;;;;5043857;28;20388;-88
2021/10/29 07:54:01;;;;;;;0.00;0.00;;;;;;;;;;5044688;28;20036;-87
2021/10/29 07:56:27;;;;;;;0.20;0.20;;;;;;;;;;5040989;28;20397;-88
2021/10/29 07:58:53;;;;;;;0.53;0.53;;;;;;;;;;5044920;28;20029;-88
2021/10/29 08:01:19;;;;;;;0.10;0.10;;;;;;;;;;5046945;28;20052;-89
2021/10/29 08:03:45;;;;;;;0.10;0.10;;;;;;;;;;5058184;28;20036;-88
2021/10/29 08:06:11;;;;;;;0.10;0.10;;;;;;;;;;5053469;28;20087;-87
2021/10/29 08:08:37;;;;;;;0.57;0.57;;;;;;;;;;5034486;28;20505;-87
2021/10/29 08:11:03;;;;;;;0.10;0.10;;;;;;;;;;5044132;28;20037;-88
2021/10/29 08:13:30;;;;;;;0.20;0.20;;;;;;;;;;5042343;28;20158;-88
2021/10/29 08:15:59;;;;;;;0.00;0.00;;;;;;;;;;5042131;28;20040;-88
2021/10/29 08:18:26;;;;;;;0.22;0.22;;;;;;;;;;5057411;28;20060;-89
2021/10/29 08:20:52;;;;;;;0.00;0.00;;;;;;;;;;5043956;28;20052;-88
2021/10/29 08:23:18;;;;;;;0.00;0.00;;;;;;;;;;5042566;28;20492;-89
2021/10/29 08:25:44;;;;;;;0.15;0.15;;;;;;;;;;5039827;28;20040;-87
2021/10/29 08:28:11;;;;;;;0.20;0.20;;;;;;;;;;5041565;28;20025;-87
2021/10/29 08:30:37;;;;;;;0.20;0.20;;;;;;;;;;5043331;28;20477;-87
2021/10/29 08:33:03;;;;;;;0.10;0.10;;;;;;;;;;5043577;28;20024;-88
2021/10/29 08:35:29;;;;;;;0.13;0.13;;;;;;;;;;5043881;28;20052;-87
2021/10/29 08:37:55;;;;;;;0.00;0.00;;;;;;;;;;5043184;28;20037;-89
2021/10/29 08:40:22;;;;;;;0.10;0.10;;;;;;;;;;5044730;28;20025;-89
2021/10/29 08:42:49;;;;;;;0.00;0.00;;;;;;;;;;5060704;28;20496;-88
2021/10/29 08:45:16;;;;;;;0.00;0.00;;;;;;;;;;5043037;28;20037;-87
2021/10/29 08:47:43;;;;;;;0.20;0.20;;;;;;;;;;5043494;28;20063;-87
2021/10/29 08:50:11;;;;;;;0.10;0.10;;;;;;;;;;5042587;28;20080;-88
2021/10/29 08:52:39;;;;;;;0.10;0.10;;;;;;;;;;5041007;28;20036;-89
2021/10/29 08:55:08;;;;;;;0.08;0.08;;;;;;;;;;5044236;28;20556;-88
2021/10/29 08:57:34;;;;;;;0.10;0.10;;;;;;;;;;5044484;28;20033;-89
2021/10/29 09:00:00;;;;;;;0.25;0.22;;;;;;;;;;5044063;28;20025;-87
2021/10/29 09:02:32;;;;;;;0.38;0.28;;;;;;;;;;5044321;28;20047;-89
2021/10/29 09:05:21;;;;;;;4.10;1.27;;;;;;;;;;5042208;28;20485;-86
2021/10/29 09:08:01;;;;;;;0.20;0.20;;;;;;;;;;5042621;28;20024;-86
2021/10/29 09:33:04;;;;;;;0.00;0.00;;;;;;;;;;5019439;28;20607;-88
2021/10/29 09:35:34;;;;;;;0.10;0.10;;;;;;;;;;5011033;28;20187;-87
2021/10/29 09:38:08;;;;;;;0.10;0.10;;;;;;;;;;5008086;28;20129;-87
2021/10/29 09:40:35;;;;;;;0.00;0.00;;;;;;;;;;5008653;28;20029;-86
2021/10/29 09:43:11;;;;;;;0.38;0.38;;;;;;;;;;5025561;28;20072;-88
2021/10/29 09:45:38;;;;;;;0.20;0.20;;;;;;;;;;5043695;28;20143;-88
2021/10/29 09:48:10;;;;;;;0.10;0.10;;;;;;;;;;5046048;28;20033;-88
2021/10/29 09:50:46;;;;;;;0.10;0.10;;;;;;;;;;5043589;28;20431;-87
2021/10/29 09:53:23;;;;;;;0.15;0.10;;;;;;;;;;5047362;28;20369;-88
2021/10/29 09:55:54;;;;;;;;;;;;;;;;;;5042522;28;20036;-88
2021/10/29 09:58:21;;;;;;;0.28;0.28;;;;;;;;;;5037938;28;20291;-88
2021/10/29 10:00:47;;;;;;;0.00;0.00;;;;;;;;;;5045602;28;20055;-88
2021/10/29 10:03:15;;;;;;;0.00;0.00;;;;;;;;;;5046674;28;20567;-88
2021/10/29 10:05:42;;;;;;;0.10;0.10;;;;;;;;;;5045082;28;20033;-87
2021/10/29 10:08:08;;;;;;;;;;;;;;;;;;5046008;28;20104;-89
2021/10/29 10:10:34;;;;;;;0.10;0.10;;;;;;;;;;5047600;28;19956;-88
2021/10/29 10:13:01;;;;;;;0.75;0.52;;;;;;;;;;5040237;28;20079;-87
2021/10/29 10:15:27;;;;;;;;;;;;;;;;;;5044568;28;20036;-89
2021/10/29 10:17:53;;;;;;;0.20;0.20;;;;;;;;;;5047049;28;20318;-89
2021/10/29 10:20:20;;;;;;;0.20;0.20;;;;;;;;;;5046491;28;20569;-88
2021/10/29 10:22:48;;;;;;;0.28;0.28;;;;;;;;;;5053119;28;20530;-89
2021/10/29 10:25:29;;;;;;;0.28;0.22;;;;;;;;;;5063385;28;20032;-89
2021/10/29 10:30:51;;;;;;;0.33;0.33;;;;;;;;;;5046807;28;20060;-87
2021/10/29 10:46:59;;;;;;;0.15;0.15;;;;;;;;;;5024158;28;20095;-89
2021/10/29 10:49:36;;;;;;;0.43;0.43;;;;;;;;;;5024703;28;20041;-88
2021/10/29 10:52:12;;;;;;;0.10;0.10;;;;;;;;;;5024899;28;20110;-89
2021/10/29 10:54:57;;;;;;;0.30;0.30;;;;;;;;;;5020962;28;20420;-88
2021/10/29 11:00:31;;;;;;;1.75;1.00;;;;;;;;;;5023850;28;20037;-88
2021/10/29 11:10:57;;;;;;;11.70;0.32;;;;;;;;;;5024193;28;20420;-88
2021/10/29 11:13:25;;;;;;;0.00;0.00;;;;;;;;;;5012816;28;20120;-88
2021/10/29 11:15:59;;;;;;;0.17;0.17;;;;;;;;;;5007738;28;20040;-87
2021/10/29 11:18:29;;;;;;;0.10;0.10;;;;;;;;;;5009894;28;20060;-88
2021/10/29 11:21:06;;;;;;;0.00;0.00;;;;;;;;;;5023712;28;20065;-88
2021/10/29 11:23:33;;;;;;;0.10;0.10;;;;;;;;;;5032108;28;20039;-88
2021/10/29 11:26:05;;;;;;;0.63;0.63;;;;;;;;;;5045467;28;20021;-89
2021/10/29 11:28:34;;;;;;;0.28;0.20;;;;;;;;;;5044913;28;20645;-89
2021/10/29 11:31:01;;;;;;;0.05;0.05;;;;;;;;;;5045494;28;20151;-88
2021/10/29 11:33:27;;;;;;;2.05;0.35;;;;;;;;;;5044040;28;20021;-89
2021/10/29 11:36:05;;;;;;;0.10;0.10;;;;;;;;;;5045423;28;20029;-89
2021/10/29 11:38:32;;;;;;;0.40;0.40;;;;;;;;;;5032020;28;20219;-88
2021/10/29 11:40:59;;;;;;;0.15;0.15;;;;;;;;;;5045129;28;20033;-87
2021/10/29 11:43:27;;;;;;;0.03;0.03;;;;;;;;;;5046565;28;20036;-88
2021/10/29 11:45:56;;;;;;;0.15;0.15;;;;;;;;;;5045629;28;20087;-89
2021/10/29 11:48:22;;;;;;;0.40;0.40;;;;;;;;;;5045106;28;20032;-88
2021/10/29 11:51:02;;;;;;;0.50;0.50;;;;;;;;;;5043657;28;20032;-89
2021/10/29 11:53:28;;;;;;;0.10;0.10;;;;;;;;;;5051171;28;20029;-89
2021/10/29 11:56:01;;;;;;;1.45;0.65;;;;;;;;;;5041872;28;20032;-88
2021/10/29 12:09:22;;;;;;;1.15;0.52;;;;;;;;;;5043618;28;20056;-87
2021/10/29 12:11:54;;;;;;;0.30;0.30;;;;;;;;;;5044315;28;20033;-88
2021/10/29 12:14:20;;;;;;;0.00;0.00;;;;;;;;;;5044097;28;20024;-87
2021/10/29 12:16:46;;;;;;;10.18;0.40;;;;;;;;;;5043039;28;20032;-86
2021/10/29 12:19:13;;;;;;;0.20;0.20;;;;;;;;;;5045669;28;20028;-86
2021/10/29 12:21:41;;;;;;;1.40;0.45;;;;;;;;;;5043943;28;20025;-87
2021/10/29 12:24:12;;;;;;;0.05;0.05;;;;;;;;;;5043940;28;20028;-86
2021/10/29 12:26:39;;;;;;;0.00;0.00;;;;;;;;;;5043657;28;20032;-86
2021/10/29 12:29:17;;;;;;;0.00;0.00;;;;;;;;;;5043483;28;20079;-87
2021/10/29 13:03:02;;;;;;;0.30;0.30;;;;;;;;;;5020944;28;20735;-87
2021/10/29 13:05:28;;;;;;;0.20;0.10;;;;;;;;;;5020951;28;20092;-87
2021/10/29 13:07:54;;;;;;;0.52;0.40;;;;;;;;;;5020919;28;20771;-86
2021/10/29 13:10:20;;;;;;;0.20;0.20;;;;;;;;;;5022017;28;20116;-86
2021/10/29 13:13:14;;;;;;;0.25;0.25;;;;;;;;;;5020927;28;20037;-86
2021/10/29 13:15:32;;;;;;;;;;;;;;;;;;5020620;28;20018;-86
2021/10/29 13:18:04;;;;;;;0.32;0.32;;;;;;;;;;5020881;28;19924;-86
2021/10/29 13:20:58;;;;;;;0.30;0.20;;;;;;;;;;5020878;28;20029;-86
2021/10/29 13:26:49;;;;;;;0.10;0.10;;;;;;;;;;4981365;28;20124;-86
2021/10/29 13:59:09;;;;;;;10.30;1.65;;;;;;;;;;4962537;28;20521;-85
2021/10/29 14:31:09;;;;;;;0.10;0.10;;;;;;;;;;5023251;28;20049;-86
2021/10/29 14:33:42;;;;;;;0.10;0.10;;;;;;;;;;5037889;28;20040;-87
2021/10/29 14:36:10;;;;;;;0.17;0.17;;;;;;;;;;5023329;28;20180;-87
2021/10/29 14:41:13;;;;;;;0.20;0.20;;;;;;;;;;5023293;28;20515;-86
2021/10/29 14:43:50;;;;;;;0.30;0.22;;;;;;;;;;5023201;28;20042;-86
2021/10/29 15:27:06;;;;;;;1.42;0.70;;;;;;;;;;5003396;28;20044;-86
2021/10/29 15:51:41;;;;;;;0.40;0.40;;;;;;;;;;4991348;28;20046;-86
2021/10/29 15:54:10;;;;;;;0.50;0.40;;;;;;;;;;4991069;28;20030;-86
2021/10/29 15:56:46;;;;;;;0.00;0.00;;;;;;;;;;4991251;28;20030;-87
2021/10/29 15:59:22;;;;;;;0.10;0.10;;;;;;;;;;4995732;28;20037;-87
2021/10/29 16:18:16;;;;;;;2.53;0.55;;;;;;;;;;5043975;28;20043;-86
2021/10/29 16:20:42;;;;;;;0.20;0.20;;;;;;;;;;5043761;28;20065;-85
2021/10/29 16:23:10;;;;;;;0.25;0.25;;;;;;;;;;5043622;28;20501;-87
2021/10/29 16:25:38;;;;;;;0.17;0.17;;;;;;;;;;5042798;28;20029;-86
2021/10/29 16:28:08;;;;;;;0.40;0.40;;;;;;;;;;5043356;28;20064;-85
2021/10/29 16:30:35;;;;;;;0.30;0.30;;;;;;;;;;5043141;28;20527;-86
2021/10/29 16:35:28;;;;;;;0.43;0.43;;;;;;;;;;5043756;28;20545;-87
2021/10/29 16:37:54;;;;;;;0.22;0.22;;;;;;;;;;5042455;28;20052;-87
2021/10/29 16:40:21;;;;;;;0.98;0.43;;;;;;;;;;5056625;28;20040;-86
2021/10/29 16:42:47;;;;;;;0.93;0.82;;;;;;;;;;5043256;28;20032;-85
2021/10/29 16:45:16;;;;;;;0.13;0.10;;;;;;;;;;5042095;28;20520;-87
2021/10/29 16:47:42;;;;;;;0.43;0.38;;;;;;;;;;5041598;28;20033;-87
2021/10/29 16:50:09;;;;;;;1.08;0.52;;;;;;;;;;5042495;28;20036;-87
2021/10/29 16:52:36;;;;;;;0.98;0.28;;;;;;;;;;5043487;28;20124;-87
2021/10/29 16:55:02;;;;;;;0.10;0.10;;;;;;;;;;5044266;28;20052;-86
2021/10/29 16:57:28;;;;;;;0.00;0.00;;;;;;;;;;5041730;28;20103;-86
2021/10/29 16:59:54;;;;;;;0.10;0.10;;;;;;;;;;5045165;28;20055;-86
2021/10/29 17:02:20;;;;;;;0.20;0.20;;;;;;;;;;5053285;28;20676;-86
2021/10/29 17:04:46;;;;;;;0.13;0.13;;;;;;;;;;5058091;28;20278;-85
2021/10/29 17:07:12;;;;;;;0.03;0.03;;;;;;;;;;5058786;28;20031;-85
2021/10/29 17:09:39;;;;;;;0.20;0.20;;;;;;;;;;5054113;28;20024;-86
2021/10/29 17:12:05;;;;;;;0.40;0.40;;;;;;;;;;5053536;28;20039;-85
2021/10/29 17:14:31;;;;;;;0.15;0.15;;;;;;;;;;5055274;28;20411;-83
2021/10/29 17:16:58;;;;;;;0.43;0.10;;;;;;;;;;5054843;28;21514;-84
2021/10/29 17:19:24;;;;;;;0.00;0.00;;;;;;;;;;5057583;28;20032;-83
2021/10/29 17:21:51;;;;;;;0.38;0.38;;;;;;;;;;5056815;28;20434;-84
2021/10/29 17:24:18;;;;;;;0.10;0.10;;;;;;;;;;5049396;28;20514;-84
2021/10/29 17:26:44;;;;;;;0.10;0.10;;;;;;;;;;5054284;28;20491;-83
2021/10/29 17:29:11;;;;;;;0.00;0.00;;;;;;;;;;5048060;28;20029;-81
2021/10/29 17:31:37;;;;;;;3.97;0.38;;;;;;;;;;5058057;28;20044;-88
2021/10/29 17:34:05;;;;;;;0.90;0.90;;;;;;;;;;5064684;28;20249;-84
2021/10/29 17:36:31;;;;;;;1.23;0.70;;;;;;;;;;5052872;28;20195;-85
2021/10/29 17:38:57;;;;;;;0.05;0.05;;;;;;;;;;5055108;28;20056;-85
2021/10/29 17:41:23;;;;;;;0.05;0.05;;;;;;;;;;5067322;28;20535;-83
2021/10/29 17:43:49;;;;;;;0.33;0.20;;;;;;;;;;5051409;28;20400;-85
2021/10/29 17:46:16;;;;;;;0.63;0.63;;;;;;;;;;5053509;28;20437;-85
2021/10/29 17:48:42;;;;;;;2.17;0.45;;;;;;;;;;5048124;28;20025;-86
2021/10/29 17:51:08;;;;;;;0.30;0.30;;;;;;;;;;5046009;28;20072;-87
2021/10/29 17:53:34;;;;;;;0.00;0.00;;;;;;;;;;5042369;28;20854;-89
2021/10/29 17:56:01;;;;;;;0.55;0.55;;;;;;;;;;5043803;28;20027;-87
2021/10/29 17:58:27;;;;;;;;;;;;;;;;;;5041583;28;20106;-87
2021/10/29 18:00:53;;;;;;;0.38;0.38;;;;;;;;;;5038908;28;20764;-86
2021/10/29 18:03:21;;;;;;;0.20;0.20;;;;;;;;;;5043631;28;20508;-87
2021/10/29 18:05:47;;;;;;;0.00;0.00;;;;;;;;;;5044359;28;20045;-85
2021/10/29 18:08:15;;;;;;;0.10;0.10;;;;;;;;;;5058712;28;20601;-85
2021/10/29 18:10:43;;;;;;;0.20;0.20;;;;;;;;;;5044245;28;20045;-84
2021/10/29 18:13:09;;;;;;;0.00;0.00;;;;;;;;;;5045083;28;20025;-85
2021/10/29 18:15:35;;;;;;;0.10;0.10;;;;;;;;;;5044556;28;20044;-85
2021/10/29 18:18:02;;;;;;;0.20;0.20;;;;;;;;;;5044107;28;20028;-86
2021/10/29 18:20:28;;;;;;;0.52;0.50;;;;;;;;;;5042062;28;20377;-84
2021/10/29 18:22:54;;;;;;;0.23;0.23;;;;;;;;;;5047312;28;20040;-87
2021/10/29 18:25:20;;;;;;;0.30;0.30;;;;;;;;;;5045934;28;20496;-87
2021/10/29 18:27:46;;;;;;;1.45;0.28;;;;;;;;;;5044945;28;20037;-87
2021/10/29 18:30:20;;;;;;;0.20;0.20;;;;;;;;;;5045896;28;20715;-86
2021/10/29 18:32:46;;;;;;;0.47;0.10;;;;;;;;;;5045701;28;20082;-87
2021/10/29 18:35:12;;;;;;;0.17;0.17;;;;;;;;;;5062836;28;20028;-87
2021/10/29 18:37:38;;;;;;;0.40;0.40;;;;;;;;;;5042789;28;20033;-86
2021/10/29 18:40:05;;;;;;;2.63;1.02;;;;;;;;;;5049142;28;20766;-87
2021/10/29 18:42:31;;;;;;;0.45;0.40;;;;;;;;;;5059350;28;20020;-87
2021/10/29 18:44:58;;;;;;;0.38;0.38;;;;;;;;;;5045953;28;20393;-88
2021/10/29 18:47:24;;;;;;;;;;;;;;;;;;5043788;28;20037;-87
2021/10/29 18:49:50;;;;;;;0.00;0.00;;;;;;;;;;5048054;28;19913;-86
2021/10/29 18:52:17;;;;;;;0.30;0.10;;;;;;;;;;5044382;28;20043;-87
2021/10/29 18:54:43;;;;;;;0.73;0.73;;;;;;;;;;5044009;28;20021;-87
2021/10/29 18:57:09;;;;;;;1.10;0.97;;;;;;;;;;5045231;28;20075;-87
2021/10/29 18:59:37;;;;;;;0.10;0.10;;;;;;;;;;5044964;28;20047;-86
2021/10/29 19:02:03;;;;;;;0.20;0.20;;;;;;;;;;5047009;28;20126;-87
2021/10/29 19:04:30;;;;;;;0.32;0.32;;;;;;;;;;5043535;28;20815;-87
2021/10/29 19:07:01;;;;;;;2.08;0.75;;;;;;;;;;5042060;28;20033;-86
2021/10/29 19:09:28;;;;;;;0.40;0.40;;;;;;;;;;5044159;28;20029;-83
2021/10/29 19:11:54;;;;;;;0.10;0.10;;;;;;;;;;5043440;28;20044;-84
2021/10/29 19:14:22;;;;;;;0.10;0.10;;;;;;;;;;5043779;28;20037;-84
2021/10/29 19:16:49;;;;;;;0.30;0.30;;;;;;;;;;5043555;28;20295;-83
2021/10/29 19:19:15;;;;;;;;;;;;;;;;;;5044435;28;20036;-83
2021/10/29 19:21:41;;;;;;;0.10;0.10;;;;;;;;;;5044157;28;19916;-83
2021/10/29 19:24:08;;;;;;;0.00;0.00;;;;;;;;;;5043721;28;20029;-83
2021/10/29 19:26:34;;;;;;;0.10;0.10;;;;;;;;;;5043422;28;20033;-83
2021/10/29 19:29:00;;;;;;;0.10;0.10;;;;;;;;;;5041288;28;20089;-83
2021/10/29 19:31:26;;;;;;;0.47;0.20;;;;;;;;;;5045216;28;20033;-83
2021/10/29 19:33:53;;;;;;;0.00;0.00;;;;;;;;;;5043843;28;20112;-84
2021/10/29 19:36:28;;;;;;;0.10;0.10;;;;;;;;;;5041252;28;20050;-83
2021/10/29 19:39:08;;;;;;;0.10;0.10;;;;;;;;;;5039998;28;20377;-83
2021/10/29 19:41:34;;;;;;;0.80;0.45;;;;;;;;;;5045335;28;20056;-83
2021/10/29 19:44:00;;;;;;;0.35;0.28;;;;;;;;;;5041552;28;20048;-83
2021/10/29 19:46:26;;;;;;;0.20;0.20;;;;;;;;;;5058139;28;20588;-83
2021/10/29 19:48:52;;;;;;;0.20;0.20;;;;;;;;;;5058963;28;20037;-83
2021/10/29 19:51:19;;;;;;;0.10;0.10;;;;;;;;;;5041980;28;20040;-83